Time;durP1;ratioP1;P1;durP2;ratioP2;P2;SDS_P1;SDS_P2;PMS_P1;PMS_P2;Temp;Humidity;BMP_temperature;BMP_pressure;BME280_temperature;BME280_humidity;BME280_pressure;Samples;Min_cycle;Max_cycle;Signal;HPM_P1;HPM_P2
2023/02/21 02:16:20;;;;;;;62.00;21.50;;;14.60;99.90;;;;;;5002348;28;25058;-75
2023/02/21 02:18:55;;;;;;;70.40;22.05;;;14.60;99.90;;;;;;5027460;28;25065;-76
2023/02/21 02:21:59;;;;;;;66.95;23.05;;;14.50;99.90;;;;;;5028496;28;25082;-74
2023/02/21 02:24:32;;;;;;;67.70;22.05;;;14.50;99.90;;;;;;4993716;28;25084;-74
2023/02/21 02:27:11;;;;;;;60.08;21.75;;;14.60;99.90;;;;;;4982217;28;25081;-73
2023/02/21 02:30:13;;;;;;;65.45;22.35;;;14.50;99.90;;;;;;5000159;28;25062;-74
2023/02/21 02:33:16;;;;;;;66.07;25.15;;;14.50;99.90;;;;;;5023474;28;25054;-75
2023/02/21 02:35:59;;;;;;;78.13;23.98;;;14.60;99.90;;;;;;5024561;28;25068;-74
2023/02/21 02:38:37;;;;;;;;;;;14.50;99.90;;;;;;5020976;28;25077;-75
2023/02/21 02:41:25;;;;;;;64.63;23.00;;;14.70;99.90;;;;;;5027772;28;24088;-76
2023/02/21 02:43:58;;;;;;;74.13;23.90;;;14.70;99.90;;;;;;5029775;28;25056;-75
2023/02/21 02:46:30;;;;;;;66.05;22.95;;;14.60;99.90;;;;;;5034673;28;25049;-76
2023/02/21 02:49:18;;;;;;;56.45;20.42;;;14.70;99.90;;;;;;5031442;28;25106;-74
2023/02/21 02:51:44;;;;;;;72.07;25.60;;;14.60;99.90;;;;;;5032020;28;25077;-76
2023/02/21 02:54:10;;;;;;;62.30;22.65;;;14.70;99.90;;;;;;5034672;28;25076;-76
2023/02/21 02:56:37;;;;;;;60.33;21.05;;;14.70;99.90;;;;;;5014524;28;25057;-76
2023/02/21 02:59:20;;;;;;;69.53;21.70;;;14.60;99.90;;;;;;5031057;28;25062;-75
2023/02/21 03:01:50;;;;;;;56.92;20.77;;;14.50;99.90;;;;;;5019170;28;25058;-75
2023/02/21 03:04:40;;;;;;;64.97;22.70;;;14.70;99.90;;;;;;5023969;28;25072;-76
2023/02/21 03:07:32;;;;;;;77.78;23.08;;;14.60;99.90;;;;;;5014879;28;25066;-75
2023/02/21 03:10:03;;;;;;;71.60;21.08;;;14.50;99.90;;;;;;5024637;28;25071;-76
2023/02/21 03:12:37;;;;;;;67.40;22.13;;;14.60;99.90;;;;;;5005839;28;25151;-75
2023/02/21 03:15:07;;;;;;;64.88;22.23;;;14.60;99.90;;;;;;5024355;28;25098;-75
2023/02/21 03:17:39;;;;;;;69.60;21.35;;;14.60;99.90;;;;;;5026227;28;25071;-74
2023/02/21 03:20:08;;;;;;;70.45;22.10;;;14.60;99.90;;;;;;5021678;28;25059;-74
2023/02/21 03:22:34;;;;;;;67.63;21.70;;;14.60;99.90;;;;;;5026597;28;25039;-76
2023/02/21 03:25:02;;;;;;;70.40;23.30;;;14.70;99.90;;;;;;5024148;28;25069;-76
2023/02/21 03:27:29;;;;;;;86.07;25.58;;;14.60;99.90;;;;;;5026581;28;25065;-75
2023/02/21 03:29:58;;;;;;;76.82;23.73;;;14.80;99.90;;;;;;5024405;28;25106;-74
2023/02/21 03:34:54;;;;;;;68.13;22.40;;;14.90;99.90;;;;;;5019782;28;25149;-75
2023/02/21 03:37:44;;;;;;;69.60;21.50;;;14.70;99.90;;;;;;5023149;28;25108;-75
2023/02/21 03:40:17;;;;;;;70.70;24.08;;;15.00;99.90;;;;;;5019294;28;25069;-75
2023/02/21 03:42:42;;;;;;;84.03;24.85;;;14.70;99.90;;;;;;5019623;28;25058;-74
2023/02/21 03:45:09;;;;;;;75.68;22.33;;;14.90;99.90;;;;;;5024623;28;25076;-74
2023/02/21 03:47:34;;;;;;;69.20;21.17;;;14.90;99.90;;;;;;5017926;28;25089;-75
2023/02/21 03:50:00;;;;;;;72.50;23.77;;;14.80;99.90;;;;;;5027690;28;25097;-74
2023/02/21 03:52:26;;;;;;;70.32;22.83;;;14.80;99.90;;;;;;5021207;28;25056;-75
2023/02/21 03:54:51;;;;;;;73.65;22.38;;;15.00;99.90;;;;;;5022682;28;25130;-75
2023/02/21 03:57:17;;;;;;;67.22;23.50;;;14.80;99.90;;;;;;5023296;28;25056;-75
2023/02/21 03:59:43;;;;;;;73.47;23.67;;;14.90;99.90;;;;;;5021078;28;25136;-74
2023/02/21 04:02:08;;;;;;;73.35;24.98;;;14.70;99.90;;;;;;5026374;28;25060;-74
2023/02/21 04:04:34;;;;;;;80.60;23.13;;;14.80;99.90;;;;;;5024537;28;25077;-73
2023/02/21 04:06:59;;;;;;;66.93;24.85;;;14.80;99.90;;;;;;5026641;28;25077;-75
2023/02/21 04:09:25;;;;;;;63.30;22.80;;;14.80;99.90;;;;;;5021635;28;25085;-74
2023/02/21 04:11:52;;;;;;;62.53;20.88;;;14.80;99.90;;;;;;5029659;28;25071;-75
2023/02/21 04:14:17;;;;;;;71.13;24.65;;;15.00;99.90;;;;;;5025817;28;25148;-74
2023/02/21 04:16:43;;;;;;;82.85;24.23;;;15.00;99.90;;;;;;5023541;28;25167;-74
2023/02/21 04:19:08;;;;;;;69.75;24.05;;;14.90;99.90;;;;;;5020531;28;25063;-75
2023/02/21 04:21:34;;;;;;;89.90;25.48;;;15.00;99.90;;;;;;5024728;28;25088;-74
2023/02/21 04:23:59;;;;;;;71.65;22.52;;;14.80;99.90;;;;;;5020677;28;25071;-75
2023/02/21 04:26:25;;;;;;;81.40;24.30;;;15.00;99.90;;;;;;5008780;28;25135;-76
2023/02/21 04:28:51;;;;;;;76.20;23.92;;;14.80;99.90;;;;;;5017954;28;25062;-75
2023/02/21 04:31:17;;;;;;;73.85;23.10;;;14.80;99.90;;;;;;5032475;28;25074;-75
2023/02/21 04:33:43;;;;;;;82.05;25.17;;;14.80;99.90;;;;;;5023563;28;25075;-75
2023/02/21 04:36:09;;;;;;;74.97;23.20;;;14.90;99.90;;;;;;5022823;28;25069;-77
2023/02/21 04:38:36;;;;;;;66.60;22.88;;;14.90;99.90;;;;;;5021747;28;25102;-74
2023/02/21 04:41:03;;;;;;;74.68;23.15;;;15.00;99.90;;;;;;5025566;28;25066;-75
2023/02/21 04:43:28;;;;;;;89.28;26.65;;;14.70;99.90;;;;;;5018502;28;25071;-75
2023/02/21 04:45:54;;;;;;;69.68;23.98;;;14.80;99.90;;;;;;5020808;28;25056;-75
2023/02/21 04:48:19;;;;;;;73.20;23.92;;;14.80;99.90;;;;;;5025816;28;25054;-75
2023/02/21 04:50:45;;;;;;;72.50;24.23;;;14.80;99.90;;;;;;5026842;28;25054;-74
2023/02/21 04:53:11;;;;;;;75.32;24.45;;;14.90;99.90;;;;;;5025509;28;25179;-76
2023/02/21 04:55:37;;;;;;;72.65;22.88;;;14.90;99.90;;;;;;4994857;28;25066;-75
2023/02/21 04:58:02;;;;;;;73.88;25.02;;;15.00;99.90;;;;;;5031970;28;25085;-75
2023/02/21 05:00:28;;;;;;;82.45;26.05;;;15.00;99.90;;;;;;5017289;28;25059;-76
2023/02/21 05:02:54;;;;;;;82.25;27.63;;;14.80;99.90;;;;;;5046467;28;25053;-75
2023/02/21 05:05:19;;;;;;;84.28;26.73;;;14.70;99.90;;;;;;5046417;28;25071;-75
2023/02/21 05:07:45;;;;;;;89.80;25.88;;;14.90;99.90;;;;;;5051326;28;25107;-76
2023/02/21 05:10:11;;;;;;;84.28;26.50;;;14.90;99.90;;;;;;5023455;28;25176;-74
2023/02/21 05:12:40;;;;;;;83.28;24.67;;;14.80;99.90;;;;;;5031042;28;25104;-74
2023/02/21 05:15:06;;;;;;;95.57;25.63;;;14.80;99.90;;;;;;5027829;28;25072;-74
2023/02/21 05:17:32;;;;;;;86.30;27.67;;;14.90;99.90;;;;;;5050666;28;25069;-74
2023/02/21 05:19:58;;;;;;;80.63;25.50;;;15.00;99.90;;;;;;5034086;28;25061;-77
2023/02/21 05:22:23;;;;;;;82.45;27.00;;;14.80;99.90;;;;;;5041612;28;25069;-74
2023/02/21 05:24:49;;;;;;;92.75;28.45;;;14.90;99.90;;;;;;5027262;28;25065;-75
2023/02/21 05:27:17;;;;;;;67.78;22.65;;;14.90;99.90;;;;;;5025707;28;25065;-74
2023/02/21 05:29:51;;;;;;;73.70;24.85;;;15.00;99.90;;;;;;5024523;28;25078;-74
2023/02/21 05:32:18;;;;;;;76.18;25.23;;;15.00;99.90;;;;;;5007791;28;25073;-75
2023/02/21 05:34:46;;;;;;;79.47;27.20;;;14.90;99.90;;;;;;5030228;28;25146;-76
2023/02/21 05:37:15;;;;;;;97.13;28.15;;;14.80;99.90;;;;;;5029043;28;25051;-76
2023/02/21 05:39:41;;;;;;;83.68;26.00;;;14.90;99.90;;;;;;5027244;28;25137;-75
2023/02/21 05:42:07;;;;;;;94.80;27.27;;;15.10;99.90;;;;;;5023880;28;25065;-74
2023/02/21 05:44:33;;;;;;;101.75;28.60;;;14.80;99.90;;;;;;5021094;28;25161;-74
2023/02/21 05:47:01;;;;;;;90.80;26.52;;;14.90;99.90;;;;;;5024059;28;25106;-74
2023/02/21 05:49:26;;;;;;;87.82;28.77;;;14.80;99.90;;;;;;5022208;28;25057;-74
2023/02/21 05:51:53;;;;;;;81.95;26.75;;;14.90;99.90;;;;;;5023576;28;25060;-74
2023/02/21 05:54:21;;;;;;;100.82;29.63;;;14.80;99.90;;;;;;5009515;28;25070;-74
2023/02/21 05:56:48;;;;;;;104.35;29.65;;;14.80;99.90;;;;;;5024068;28;25072;-74
2023/02/21 05:59:18;;;;;;;98.90;28.98;;;14.80;99.90;;;;;;5019158;28;25080;-75
2023/02/21 06:01:44;;;;;;;106.53;31.60;;;15.00;99.90;;;;;;5018759;28;25125;-73
2023/02/21 06:04:10;;;;;;;106.57;29.77;;;14.80;99.90;;;;;;5021010;28;25140;-74
2023/02/21 06:06:36;;;;;;;107.75;30.77;;;14.90;99.90;;;;;;5022480;28;25070;-74
2023/02/21 06:09:03;;;;;;;99.72;28.77;;;14.90;99.90;;;;;;5019753;28;25472;-74
2023/02/21 06:11:32;;;;;;;83.15;25.58;;;15.10;99.90;;;;;;5020769;28;25076;-74
2023/02/21 06:13:59;;;;;;;113.60;29.67;;;15.00;99.90;;;;;;5023337;28;25088;-74
2023/02/21 06:16:25;;;;;;;130.45;35.17;;;14.90;99.90;;;;;;5025170;28;25112;-73
2023/02/21 06:18:53;;;;;;;120.28;30.15;;;14.90;99.90;;;;;;5026992;28;25070;-75
2023/02/21 06:21:19;;;;;;;99.88;26.25;;;15.00;99.90;;;;;;5019910;28;25113;-75
2023/02/21 06:23:45;;;;;;;104.25;29.13;;;14.90;99.90;;;;;;5029014;28;25153;-75
2023/02/21 06:26:11;;;;;;;104.00;28.05;;;14.80;99.90;;;;;;5007668;28;25156;-74
2023/02/21 06:28:36;;;;;;;115.60;31.27;;;14.80;99.90;;;;;;5012730;28;25067;-75
2023/02/21 06:31:03;;;;;;;117.00;31.42;;;15.10;99.90;;;;;;5022432;28;25068;-76
2023/02/21 06:33:29;;;;;;;115.45;32.40;;;14.90;99.90;;;;;;5031086;28;25055;-76
2023/02/21 06:35:54;;;;;;;128.32;32.00;;;15.00;99.90;;;;;;5024264;28;25078;-75
2023/02/21 06:38:20;;;;;;;114.50;30.00;;;14.90;99.90;;;;;;5017828;28;25066;-75
2023/02/21 06:40:46;;;;;;;125.93;30.40;;;15.10;99.90;;;;;;5015407;28;25065;-74
2023/02/21 06:43:11;;;;;;;92.00;25.13;;;15.00;99.90;;;;;;5017116;28;25065;-75
2023/02/21 06:45:37;;;;;;;117.55;30.63;;;15.10;99.90;;;;;;5038151;28;25099;-73
2023/02/21 06:48:02;;;;;;;108.28;30.52;;;14.90;99.90;;;;;;5027045;28;25103;-74
2023/02/21 06:50:28;;;;;;;104.00;29.83;;;14.90;99.90;;;;;;5027667;28;25124;-75
2023/02/21 06:52:54;;;;;;;116.53;30.40;;;15.10;99.90;;;;;;5023171;28;25076;-73
2023/02/21 06:55:21;;;;;;;109.85;31.35;;;15.20;99.90;;;;;;5020451;28;25075;-74
2023/02/21 06:57:47;;;;;;;81.30;24.35;;;15.20;99.90;;;;;;5014149;28;25089;-75
2023/02/21 07:00:13;;;;;;;102.75;29.90;;;15.20;99.90;;;;;;5027587;28;25073;-76
2023/02/21 07:02:39;;;;;;;103.82;28.75;;;15.00;99.90;;;;;;5017278;28;25112;-75
2023/02/21 07:05:05;;;;;;;102.32;28.27;;;15.10;99.90;;;;;;5022245;28;25132;-74
2023/02/21 07:07:31;;;;;;;109.85;30.13;;;15.20;99.90;;;;;;5026217;28;25077;-76
2023/02/21 07:09:56;;;;;;;85.55;25.15;;;15.10;99.90;;;;;;5017775;28;25079;-77
2023/02/21 07:12:22;;;;;;;77.68;24.20;;;15.20;99.90;;;;;;5025758;28;25079;-75
2023/02/21 07:14:47;;;;;;;100.38;28.55;;;15.00;99.90;;;;;;5025011;28;25080;-75
2023/02/21 07:17:13;;;;;;;92.25;27.65;;;15.10;99.90;;;;;;5019607;28;25124;-75
2023/02/21 07:19:40;;;;;;;88.28;26.92;;;15.00;99.90;;;;;;5020061;28;25053;-75
2023/02/21 07:22:06;;;;;;;91.97;25.92;;;15.00;99.90;;;;;;5019883;28;25071;-74
2023/02/21 07:24:32;;;;;;;80.00;26.45;;;15.20;99.90;;;;;;5015879;28;25069;-74
2023/02/21 07:26:58;;;;;;;82.40;24.60;;;15.10;99.90;;;;;;5017595;28;25122;-75
2023/02/21 07:29:24;;;;;;;85.53;25.52;;;15.10;99.90;;;;;;5024885;28;25084;-75
2023/02/21 07:31:50;;;;;;;67.75;23.20;;;15.00;99.90;;;;;;5029576;28;25053;-75
2023/02/21 07:34:15;;;;;;;85.63;22.65;;;14.90;99.90;;;;;;5022929;28;25091;-75
2023/02/21 07:36:41;;;;;;;96.22;26.77;;;15.00;99.90;;;;;;5021997;28;25075;-72
2023/02/21 07:39:07;;;;;;;84.50;25.63;;;15.20;99.90;;;;;;5020711;28;25148;-75
2023/02/21 07:41:32;;;;;;;86.60;27.02;;;15.20;99.90;;;;;;5015531;28;25052;-74
2023/02/21 07:43:58;;;;;;;79.43;25.42;;;15.10;99.90;;;;;;5016218;28;25071;-75
2023/02/21 07:46:27;;;;;;;96.35;28.23;;;14.90;99.90;;;;;;5018456;28;25062;-76
2023/02/21 07:48:52;;;;;;;103.75;28.75;;;15.00;99.90;;;;;;5019060;28;25124;-75
2023/02/21 07:51:18;;;;;;;99.28;29.48;;;14.90;99.90;;;;;;5023338;28;25092;-74
2023/02/21 07:53:44;;;;;;;88.75;26.33;;;14.90;99.90;;;;;;5007633;28;25054;-72
2023/02/21 07:56:09;;;;;;;81.05;25.13;;;15.10;99.90;;;;;;5009077;28;25084;-74
2023/02/21 07:58:38;;;;;;;121.68;30.75;;;15.10;99.90;;;;;;5027113;28;25080;-74
2023/02/21 08:01:05;;;;;;;100.03;31.20;;;15.00;99.90;;;;;;5027046;28;25084;-75
2023/02/21 08:03:31;;;;;;;111.07;29.42;;;15.00;99.90;;;;;;5025778;28;25064;-75
2023/02/21 08:06:00;;;;;;;139.05;31.85;;;15.00;99.90;;;;;;5019286;28;25068;-74
2023/02/21 08:08:26;;;;;;;103.30;27.80;;;15.00;99.90;;;;;;5027581;28;25071;-74
2023/02/21 08:10:51;;;;;;;103.13;31.80;;;15.10;99.90;;;;;;5027841;28;25147;-74
2023/02/21 08:13:17;;;;;;;120.82;33.20;;;15.10;99.90;;;;;;5023150;28;25051;-74
2023/02/21 08:15:42;;;;;;;113.15;29.90;;;15.10;99.90;;;;;;5037155;28;25051;-74
2023/02/21 08:18:22;;;;;;;154.93;36.65;;;15.10;99.90;;;;;;5026227;28;25073;-73
2023/02/21 08:20:51;;;;;;;103.30;30.10;;;15.10;99.90;;;;;;5026610;28;25071;-74
2023/02/21 08:23:18;;;;;;;147.95;35.33;;;15.20;99.90;;;;;;5018838;28;25186;-76
2023/02/21 08:25:45;;;;;;;143.27;37.38;;;15.20;99.90;;;;;;5022336;28;25073;-75
2023/02/21 08:28:11;;;;;;;135.93;36.30;;;15.10;99.90;;;;;;5018694;28;25148;-74
2023/02/21 08:30:36;;;;;;;182.23;40.45;;;15.00;99.90;;;;;;5016324;28;25095;-76
2023/02/21 08:33:02;;;;;;;139.35;35.78;;;15.10;99.90;;;;;;5026345;28;25069;-73
2023/02/21 08:35:27;;;;;;;152.52;37.03;;;15.00;99.90;;;;;;5025518;28;25142;-73
2023/02/21 08:38:01;;;;;;;135.65;38.83;;;15.10;99.90;;;;;;5010553;28;25061;-75
2023/02/21 08:40:30;;;;;;;156.00;37.20;;;15.20;99.90;;;;;;5020252;28;25076;-73
2023/02/21 08:42:57;;;;;;;147.18;36.92;;;15.10;99.90;;;;;;5026047;28;25076;-72
2023/02/21 08:45:24;;;;;;;154.82;36.55;;;15.30;99.90;;;;;;5020052;28;25080;-74
2023/02/21 08:47:50;;;;;;;159.43;38.92;;;15.20;99.90;;;;;;5018440;28;25063;-75
2023/02/21 08:50:17;;;;;;;157.75;40.17;;;15.20;99.90;;;;;;5027577;28;25119;-74
2023/02/21 08:52:45;;;;;;;122.85;32.97;;;15.20;99.90;;;;;;5025197;28;25065;-73
2023/02/21 08:55:10;;;;;;;182.05;41.83;;;15.20;99.90;;;;;;5009504;28;25112;-74
2023/02/21 08:57:36;;;;;;;164.07;39.30;;;15.10;99.90;;;;;;5012534;28;25078;-74
2023/02/21 09:00:04;;;;;;;164.82;38.72;;;15.20;99.90;;;;;;4993412;28;25075;-75
2023/02/21 09:02:31;;;;;;;165.10;38.80;;;15.30;99.90;;;;;;5010472;28;25049;-74
2023/02/21 09:04:58;;;;;;;139.75;36.42;;;15.20;99.90;;;;;;5018929;28;25164;-74
2023/02/21 09:07:24;;;;;;;163.13;40.45;;;15.30;99.90;;;;;;5025592;28;25119;-75
2023/02/21 09:09:49;;;;;;;159.88;36.13;;;15.10;99.90;;;;;;5017782;28;25097;-74
2023/02/21 09:12:15;;;;;;;138.38;35.65;;;15.30;99.90;;;;;;5011311;28;25083;-74
2023/02/21 09:14:42;;;;;;;166.68;35.65;;;15.20;99.90;;;;;;5020060;28;25060;-75
2023/02/21 09:17:11;;;;;;;138.05;36.60;;;15.20;99.90;;;;;;5026084;28;25135;-76
2023/02/21 09:19:37;;;;;;;128.80;31.95;;;15.00;99.90;;;;;;5021520;28;25064;-75
2023/02/21 09:22:03;;;;;;;124.25;29.35;;;15.30;99.90;;;;;;5023536;28;25134;-74
2023/02/21 09:24:29;;;;;;;100.45;27.95;;;15.20;99.90;;;;;;5023259;28;25072;-76
2023/02/21 09:26:58;;;;;;;104.90;26.85;;;15.00;99.90;;;;;;5018274;28;25061;-74
2023/02/21 09:29:28;;;;;;;116.32;30.40;;;15.10;99.90;;;;;;5022660;28;25170;-75
2023/02/21 09:31:53;;;;;;;121.80;30.90;;;15.20;99.90;;;;;;5022341;28;25165;-73
2023/02/21 09:34:19;;;;;;;102.15;25.13;;;15.00;99.90;;;;;;5015020;28;25187;-75
2023/02/21 09:36:46;;;;;;;110.43;26.73;;;15.20;99.90;;;;;;5017481;28;25052;-76
2023/02/21 09:39:12;;;;;;;121.22;29.85;;;15.10;99.90;;;;;;5024184;28;25052;-75
2023/02/21 09:41:39;;;;;;;94.53;23.45;;;15.30;99.90;;;;;;5020391;28;25077;-75
2023/02/21 09:44:06;;;;;;;93.05;25.30;;;15.10;99.90;;;;;;5021147;28;25092;-74
2023/02/21 09:46:45;;;;;;;100.28;26.38;;;15.30;99.90;;;;;;5018863;28;25065;-75
2023/02/21 09:49:22;;;;;;;93.10;26.35;;;15.30;99.90;;;;;;5009049;28;25059;-73
2023/02/21 09:51:49;;;;;;;83.68;21.52;;;15.20;99.90;;;;;;5023971;28;25102;-74
2023/02/21 09:54:23;;;;;;;76.47;19.55;;;15.30;99.90;;;;;;5026228;28;25171;-73
2023/02/21 09:56:49;;;;;;;81.57;21.77;;;15.10;99.90;;;;;;5020383;28;25065;-74
2023/02/21 09:59:15;;;;;;;67.80;21.58;;;15.00;99.90;;;;;;5013216;28;25071;-74
2023/02/21 10:01:56;;;;;;;65.93;18.55;;;15.10;99.90;;;;;;5017106;28;25075;-75
2023/02/21 10:04:27;;;;;;;67.28;19.52;;;15.20;99.90;;;;;;5022456;28;25057;-76
2023/02/21 10:07:30;;;;;;;76.90;21.30;;;15.10;99.90;;;;;;5022111;28;25063;-76
2023/02/21 10:10:12;;;;;;;76.30;20.05;;;15.10;99.90;;;;;;5001583;28;25119;-75
2023/02/21 10:13:33;;;;;;;65.00;18.07;;;15.20;99.90;;;;;;5015871;28;25071;-75
2023/02/21 10:16:34;;;;;;;64.20;18.27;;;15.00;99.90;;;;;;5000204;28;25086;-75
2023/02/21 10:19:30;;;;;;;53.58;18.40;;;14.90;99.90;;;;;;4997182;28;25087;-75
2023/02/21 10:21:58;;;;;;;56.45;18.63;;;14.90;99.90;;;;;;5024240;28;25174;-75
2023/02/21 10:24:26;;;;;;;51.55;16.70;;;15.00;99.90;;;;;;5028188;28;25112;-76
2023/02/21 10:27:03;;;;;;;51.92;14.90;;;15.00;99.90;;;;;;5016630;28;25061;-76
2023/02/21 10:29:46;;;;;;;48.72;14.15;;;15.10;99.90;;;;;;5024961;28;25099;-77
2023/02/21 10:32:12;;;;;;;44.42;13.75;;;15.00;99.90;;;;;;5026439;28;25107;-75
2023/02/21 10:34:42;;;;;;;38.05;13.98;;;14.90;99.90;;;;;;5039814;28;25081;-78
2023/02/21 10:37:22;;;;;;;39.55;13.68;;;14.90;99.90;;;;;;5051893;28;25099;-76
2023/02/21 10:40:04;;;;;;;32.35;12.27;;;14.80;99.90;;;;;;5053429;28;25076;-76
2023/02/21 10:42:37;;;;;;;37.67;12.93;;;14.70;99.90;;;;;;5053378;28;25060;-76
2023/02/21 10:45:04;;;;;;;39.63;12.85;;;14.80;99.90;;;;;;5038160;28;25051;-75
2023/02/21 10:47:46;;;;;;;44.25;13.70;;;14.80;99.90;;;;;;5043842;28;25056;-78
2023/02/21 10:50:12;;;;;;;35.85;12.27;;;14.70;99.90;;;;;;5034953;28;25057;-78
2023/02/21 10:52:47;;;;;;;41.88;12.73;;;14.80;99.90;;;;;;5054230;28;25068;-76
2023/02/21 10:55:17;;;;;;;37.97;12.68;;;14.70;99.90;;;;;;5037580;28;25059;-74
2023/02/21 10:57:44;;;;;;;36.85;12.43;;;14.60;99.90;;;;;;5021212;28;25088;-78
2023/02/21 11:00:34;;;;;;;32.05;11.23;;;14.60;99.90;;;;;;5025328;28;25054;-76
2023/02/21 11:03:14;;;;;;;34.03;11.77;;;14.80;99.90;;;;;;5027737;28;25064;-76
2023/02/21 11:05:40;;;;;;;28.80;9.52;;;14.70;99.90;;;;;;5020544;28;25107;-77
2023/02/21 11:08:08;;;;;;;31.77;11.23;;;14.80;99.90;;;;;;5017192;28;25073;-76
2023/02/21 11:10:39;;;;;;;26.83;10.55;;;14.70;99.90;;;;;;5020872;28;25080;-76
2023/02/21 11:13:16;;;;;;;29.20;10.82;;;14.70;99.90;;;;;;5019208;28;25068;-77
2023/02/21 11:15:43;;;;;;;51.33;10.60;;;14.60;99.90;;;;;;5019731;28;25069;-76
2023/02/21 11:18:23;;;;;;;35.22;11.50;;;14.60;99.90;;;;;;5024591;28;25066;-76
2023/02/21 11:20:50;;;;;;;33.97;11.90;;;14.70;99.90;;;;;;5009728;28;25114;-78
2023/02/21 11:23:20;;;;;;;29.02;10.52;;;14.60;99.90;;;;;;5015840;28;25121;-77
2023/02/21 11:25:48;;;;;;;27.35;10.65;;;14.70;99.90;;;;;;5013734;28;25159;-76
2023/02/21 11:28:16;;;;;;;25.00;9.43;;;14.70;99.90;;;;;;5023528;28;25093;-76
2023/02/21 11:31:00;;;;;;;32.28;10.65;;;14.60;99.90;;;;;;5015525;28;25057;-76
2023/02/21 11:33:26;;;;;;;38.15;11.35;;;14.70;99.90;;;;;;5023795;28;25068;-75
2023/02/21 11:36:05;;;;;;;29.20;10.55;;;14.80;99.90;;;;;;5023765;28;25072;-74
2023/02/21 11:38:40;;;;;;;29.42;10.98;;;14.70;99.90;;;;;;5021350;28;25082;-77
2023/02/21 11:41:26;;;;;;;23.92;9.30;;;14.60;99.90;;;;;;5020614;28;25073;-75
2023/02/21 11:43:53;;;;;;;23.40;9.65;;;14.60;99.90;;;;;;5017743;28;25111;-76
2023/02/21 11:46:30;;;;;;;28.33;9.82;;;14.60;99.90;;;;;;5023083;28;25083;-76
2023/02/21 11:48:58;;;;;;;23.42;9.27;;;14.50;99.90;;;;;;5016858;28;25074;-76
2023/02/21 11:51:43;;;;;;;28.40;9.35;;;14.40;99.90;;;;;;5021042;28;25164;-76
2023/02/21 11:54:10;;;;;;;21.05;9.45;;;14.50;99.90;;;;;;5004998;28;25083;-76
2023/02/21 11:56:43;;;;;;;24.70;10.05;;;14.40;99.90;;;;;;5018547;28;25067;-75
2023/02/21 11:59:46;;;;;;;28.02;9.98;;;14.30;99.90;;;;;;5023026;28;25148;-75
2023/02/21 12:02:39;;;;;;;25.02;9.48;;;14.20;99.90;;;;;;5019243;28;25073;-73
2023/02/21 12:05:14;;;;;;;19.30;8.73;;;14.30;99.90;;;;;;5006612;28;25093;-76
2023/02/21 12:08:03;;;;;;;22.15;8.63;;;14.20;99.90;;;;;;5018617;28;25075;-76
2023/02/21 12:10:49;;;;;;;22.60;8.80;;;14.10;99.90;;;;;;5025319;28;25042;-76
2023/02/21 12:13:34;;;;;;;26.40;8.98;;;14.00;99.90;;;;;;5028866;28;25063;-77
2023/02/21 12:16:28;;;;;;;20.10;8.23;;;14.10;99.90;;;;;;5022295;28;25063;-75
2023/02/21 12:19:18;;;;;;;21.23;8.90;;;13.90;99.90;;;;;;5024981;28;25432;-76
2023/02/21 12:22:11;;;;;;;22.38;7.78;;;13.60;99.90;;;;;;5028396;28;25053;-76
2023/02/21 12:24:42;;;;;;;22.17;8.00;;;13.70;99.90;;;;;;5032900;28;25084;-76
2023/02/21 12:27:20;;;;;;;17.33;6.93;;;13.60;99.90;;;;;;5028338;28;25061;-76
2023/02/21 12:30:04;;;;;;;17.55;7.60;;;13.60;99.90;;;;;;5007719;28;25126;-76
2023/02/21 12:32:50;;;;;;;19.08;7.65;;;13.60;99.90;;;;;;5026108;28;25075;-76
2023/02/21 12:35:47;;;;;;;18.65;8.05;;;13.50;99.90;;;;;;5024424;28;25080;-76
2023/02/21 12:38:16;;;;;;;21.98;7.32;;;13.40;99.90;;;;;;5032305;28;25113;-74
2023/02/21 12:40:44;;;;;;;19.45;6.78;;;13.30;99.90;;;;;;5030133;28;25100;-75
2023/02/21 12:43:22;;;;;;;18.52;7.10;;;13.40;99.90;;;;;;5029725;28;25068;-75
2023/02/21 12:45:55;;;;;;;20.42;8.18;;;13.40;99.90;;;;;;5018658;28;25091;-76
2023/02/21 12:48:33;;;;;;;14.85;6.25;;;13.20;99.90;;;;;;5029359;28;25078;-77
2023/02/21 12:51:05;;;;;;;17.15;7.43;;;13.20;99.90;;;;;;5025448;28;25093;-74
2023/02/21 12:53:57;;;;;;;16.42;7.28;;;13.10;99.90;;;;;;5020943;28;25069;-77
2023/02/21 12:56:32;;;;;;;18.50;7.47;;;13.10;99.90;;;;;;5024235;28;25093;-77
2023/02/21 12:59:12;;;;;;;16.60;6.20;;;12.90;99.90;;;;;;5025964;28;25161;-75
2023/02/21 13:01:49;;;;;;;17.48;6.65;;;12.70;99.90;;;;;;5020589;28;25060;-77
2023/02/21 13:04:44;;;;;;;15.85;6.25;;;12.70;99.90;;;;;;5024878;28;25099;-74
2023/02/21 13:07:25;;;;;;;15.93;7.65;;;12.40;99.90;;;;;;5008883;28;25075;-74
2023/02/21 13:09:59;;;;;;;19.48;7.35;;;12.30;99.90;;;;;;5028229;28;25056;-75
2023/02/21 13:12:37;;;;;;;19.42;7.55;;;12.30;99.90;;;;;;5036143;28;25066;-75
2023/02/21 13:15:15;;;;;;;18.75;7.28;;;12.10;99.90;;;;;;5029658;28;25059;-72
2023/02/21 13:17:43;;;;;;;19.60;7.10;;;12.00;99.90;;;;;;5025864;28;25063;-74
2023/02/21 13:20:16;;;;;;;17.73;7.05;;;12.00;99.90;;;;;;5019332;28;25076;-75
2023/02/21 13:25:52;;;;;;;13.65;6.57;;;12.00;99.90;;;;;;5022159;28;25088;-77
2023/02/21 13:28:24;;;;;;;13.43;6.68;;;11.80;99.90;;;;;;5019779;28;25048;-75
2023/02/21 13:31:01;;;;;;;13.80;6.15;;;11.60;99.90;;;;;;5020352;28;25114;-75
2023/02/21 13:33:43;;;;;;;14.95;5.63;;;11.50;99.90;;;;;;5021101;28;25052;-74
2023/02/21 13:36:28;;;;;;;13.65;5.72;;;11.40;99.90;;;;;;5016213;28;25052;-75
2023/02/21 13:38:59;;;;;;;16.20;6.00;;;11.40;99.90;;;;;;5004529;28;25050;-74
2023/02/21 13:41:27;;;;;;;16.38;6.60;;;11.40;99.90;;;;;;5020886;28;25124;-73
2023/02/21 13:43:54;;;;;;;20.70;9.52;;;11.40;99.90;;;;;;5005523;28;25085;-76
2023/02/21 13:46:29;;;;;;;22.80;7.75;;;11.20;99.90;;;;;;5020848;28;25088;-74
2023/02/21 13:49:32;;;;;;;19.10;7.60;;;11.10;99.90;;;;;;5024453;28;25081;-76
2023/02/21 13:52:21;;;;;;;19.38;7.53;;;11.10;99.90;;;;;;5018375;28;25107;-74
2023/02/21 13:55:14;;;;;;;20.45;7.15;;;11.00;99.90;;;;;;5017949;28;25105;-75
2023/02/21 13:57:43;;;;;;;22.98;9.27;;;10.90;99.90;;;;;;5026555;28;25062;-74
2023/02/21 14:00:23;;;;;;;20.23;8.32;;;11.00;99.90;;;;;;5025977;28;25058;-75
2023/02/21 14:03:11;;;;;;;28.40;8.95;;;11.00;99.90;;;;;;5019170;28;25046;-75
2023/02/21 14:05:46;;;;;;;21.80;8.70;;;10.90;99.90;;;;;;5015117;28;25594;-75
2023/02/21 14:08:13;;;;;;;19.83;8.18;;;10.90;99.90;;;;;;5023931;28;25063;-75
2023/02/21 14:10:46;;;;;;;22.88;8.35;;;11.00;99.90;;;;;;5025419;28;25063;-75
2023/02/21 14:13:27;;;;;;;24.13;8.55;;;10.90;99.90;;;;;;5029990;28;25064;-75
2023/02/21 14:16:07;;;;;;;28.02;8.88;;;10.90;99.90;;;;;;5014890;28;25118;-75
2023/02/21 14:18:39;;;;;;;24.00;8.60;;;10.70;99.90;;;;;;5010284;28;25056;-74
2023/02/21 14:21:36;;;;;;;24.48;8.65;;;10.70;99.90;;;;;;5021785;28;25079;-75
2023/02/21 14:24:21;;;;;;;29.10;9.18;;;10.70;99.90;;;;;;5027432;28;25133;-75
2023/02/21 14:26:52;;;;;;;28.45;9.32;;;10.70;99.90;;;;;;5008671;28;25072;-74
2023/02/21 14:29:29;;;;;;;25.63;8.52;;;10.80;99.90;;;;;;5020841;28;25071;-74
2023/02/21 14:32:02;;;;;;;23.67;8.77;;;10.80;99.90;;;;;;5018859;28;25139;-75
2023/02/21 14:34:45;;;;;;;25.90;8.82;;;10.70;99.90;;;;;;5018727;28;25083;-74
2023/02/21 14:37:33;;;;;;;23.95;8.63;;;10.70;99.90;;;;;;5010101;28;25052;-73
2023/02/21 14:40:00;;;;;;;27.27;9.60;;;10.70;99.90;;;;;;5020927;28;25079;-74
2023/02/21 14:42:28;;;;;;;20.88;8.68;;;10.60;99.90;;;;;;5022241;28;25089;-75
2023/02/21 14:45:09;;;;;;;31.45;9.50;;;10.60;99.90;;;;;;5029805;28;25142;-74
2023/02/21 14:47:35;;;;;;;29.58;10.68;;;10.70;99.90;;;;;;5032122;28;25173;-74
2023/02/21 14:50:20;;;;;;;36.20;11.13;;;10.70;99.90;;;;;;5023776;28;25094;-74
2023/02/21 14:52:51;;;;;;;29.45;11.00;;;10.50;99.90;;;;;;5031750;28;25084;-76
2023/02/21 14:55:32;;;;;;;34.80;11.45;;;10.40;99.90;;;;;;5024725;28;25051;-76
2023/02/21 14:58:12;;;;;;;33.90;10.35;;;10.30;99.90;;;;;;5033492;28;25054;-74
2023/02/21 15:01:13;;;;;;;33.97;10.98;;;10.20;99.90;;;;;;5042973;28;25081;-76
2023/02/21 15:03:47;;;;;;;29.88;10.10;;;10.20;99.90;;;;;;5025066;28;25077;-75
2023/02/21 15:06:24;;;;;;;32.55;9.93;;;10.10;99.90;;;;;;5035322;28;25044;-75
2023/02/21 15:08:51;;;;;;;28.48;8.85;;;10.10;99.90;;;;;;5026317;28;25102;-74
2023/02/21 15:11:37;;;;;;;32.50;10.00;;;10.20;99.90;;;;;;5028619;28;25069;-76
2023/02/21 15:14:21;;;;;;;27.52;9.15;;;10.20;99.90;;;;;;5020451;28;25069;-75